sensor_id;sensor_type;location;lat;lon;timestamp;temperature;humidity
12720;DHT22;6424;48.520;11.228;2022-11-06T00:00:42;4.50;99.90
12720;DHT22;6424;48.520;11.228;2022-11-06T00:03:08;4.50;99.90
12720;DHT22;6424;48.520;11.228;2022-11-06T00:05:49;4.50;99.90
12720;DHT22;6424;48.520;11.228;2022-11-06T00:08:48;4.50;99.90
12720;DHT22;6424;48.520;11.228;2022-11-06T00:11:29;4.50;99.90
12720;DHT22;6424;48.520;11.228;2022-11-06T00:14:10;4.50;99.90
12720;DHT22;6424;48.520;11.228;2022-11-06T00:16:51;4.50;99.90
12720;DHT22;6424;48.520;11.228;2022-11-06T00:19:32;4.50;99.90
12720;DHT22;6424;48.520;11.228;2022-11-06T00:22:13;4.50;99.90
12720;DHT22;6424;48.520;11.228;2022-11-06T00:24:55;4.50;99.90
12720;DHT22;6424;48.520;11.228;2022-11-06T00:27:37;4.50;99.90
12720;DHT22;6424;48.520;11.228;2022-11-06T00:30:19;4.50;99.90
12720;DHT22;6424;48.520;11.228;2022-11-06T00:32:46;4.50;99.90
12720;DHT22;6424;48.520;11.228;2022-11-06T00:35:27;4.50;99.90
12720;DHT22;6424;48.520;11.228;2022-11-06T00:38:08;4.50;99.90
12720;DHT22;6424;48.520;11.228;2022-11-06T00:40:34;4.50;99.90
12720;DHT22;6424;48.520;11.228;2022-11-06T00:43:14;4.40;99.90
12720;DHT22;6424;48.520;11.228;2022-11-06T00:46:02;4.40;99.90
12720;DHT22;6424;48.520;11.228;2022-11-06T00:48:44;4.40;99.90
12720;DHT22;6424;48.520;11.228;2022-11-06T00:51:36;4.40;99.90
12720;DHT22;6424;48.520;11.228;2022-11-06T00:54:18;4.30;99.90
12720;DHT22;6424;48.520;11.228;2022-11-06T00:56:59;4.30;99.90
12720;DHT22;6424;48.520;11.228;2022-11-06T00:59:40;4.20;99.90
12720;DHT22;6424;48.520;11.228;2022-11-06T01:02:21;4.20;99.90
12720;DHT22;6424;48.520;11.228;2022-11-06T01:05:02;4.20;99.90
12720;DHT22;6424;48.520;11.228;2022-11-06T01:07:42;4.20;99.90
12720;DHT22;6424;48.520;11.228;2022-11-06T01:10:23;4.20;99.90
12720;DHT22;6424;48.520;11.228;2022-11-06T01:13:04;4.10;99.90
12720;DHT22;6424;48.520;11.228;2022-11-06T01:15:45;4.10;99.90
12720;DHT22;6424;48.520;11.228;2022-11-06T01:18:25;4.00;99.90
12720;DHT22;6424;48.520;11.228;2022-11-06T01:21:12;4.00;99.90
12720;DHT22;6424;48.520;11.228;2022-11-06T01:23:56;4.00;99.90
12720;DHT22;6424;48.520;11.228;2022-11-06T01:26:37;4.00;99.90
12720;DHT22;6424;48.520;11.228;2022-11-06T01:29:19;3.90;99.90
12720;DHT22;6424;48.520;11.228;2022-11-06T01:32:00;3.90;99.90
12720;DHT22;6424;48.520;11.228;2022-11-06T01:34:41;3.90;99.90
12720;DHT22;6424;48.520;11.228;2022-11-06T01:37:07;3.80;99.90
12720;DHT22;6424;48.520;11.228;2022-11-06T01:39:48;3.80;99.90
12720;DHT22;6424;48.520;11.228;2022-11-06T01:45:25;3.70;99.90
12720;DHT22;6424;48.520;11.228;2022-11-06T01:48:08;3.60;99.90
12720;DHT22;6424;48.520;11.228;2022-11-06T01:50:53;3.60;99.90
12720;DHT22;6424;48.520;11.228;2022-11-06T01:53:20;3.60;99.90
12720;DHT22;6424;48.520;11.228;2022-11-06T01:56:04;3.50;99.90
12720;DHT22;6424;48.520;11.228;2022-11-06T01:58:49;3.50;99.90
12720;DHT22;6424;48.520;11.228;2022-11-06T02:01:31;3.40;99.90
12720;DHT22;6424;48.520;11.228;2022-11-06T02:06:40;3.30;99.90
12720;DHT22;6424;48.520;11.228;2022-11-06T02:09:21;3.20;99.90
12720;DHT22;6424;48.520;11.228;2022-11-06T02:12:17;3.20;99.90
12720;DHT22;6424;48.520;11.228;2022-11-06T02:15:26;3.10;99.90
12720;DHT22;6424;48.520;11.228;2022-11-06T02:21:34;2.90;99.90
12720;DHT22;6424;48.520;11.228;2022-11-06T02:27:17;2.80;99.90
12720;DHT22;6424;48.520;11.228;2022-11-06T02:33:00;2.70;99.90
12720;DHT22;6424;48.520;11.228;2022-11-06T02:35:51;2.70;99.90
12720;DHT22;6424;48.520;11.228;2022-11-06T02:38:40;2.70;99.90
12720;DHT22;6424;48.520;11.228;2022-11-06T02:41:24;2.60;99.90
12720;DHT22;6424;48.520;11.228;2022-11-06T02:44:08;2.60;99.90
12720;DHT22;6424;48.520;11.228;2022-11-06T02:46:57;2.60;99.90
12720;DHT22;6424;48.520;11.228;2022-11-06T02:49:41;2.50;99.90
12720;DHT22;6424;48.520;11.228;2022-11-06T02:52:33;2.50;99.90
12720;DHT22;6424;48.520;11.228;2022-11-06T02:55:37;2.50;99.90
12720;DHT22;6424;48.520;11.228;2022-11-06T02:58:23;2.50;99.90
12720;DHT22;6424;48.520;11.228;2022-11-06T03:00:59;2.40;99.90
12720;DHT22;6424;48.520;11.228;2022-11-06T03:03:45;2.40;99.90
12720;DHT22;6424;48.520;11.228;2022-11-06T03:06:56;2.40;99.90
12720;DHT22;6424;48.520;11.228;2022-11-06T03:09:39;2.30;99.90
12720;DHT22;6424;48.520;11.228;2022-11-06T03:20:43;2.10;99.90
12720;DHT22;6424;48.520;11.228;2022-11-06T03:23:39;2.10;99.90
12720;DHT22;6424;48.520;11.228;2022-11-06T03:26:35;2.00;99.90
12720;DHT22;6424;48.520;11.228;2022-11-06T03:29:43;2.00;99.90
12720;DHT22;6424;48.520;11.228;2022-11-06T03:32:52;2.10;99.90
12720;DHT22;6424;48.520;11.228;2022-11-06T03:35:42;2.10;99.90
12720;DHT22;6424;48.520;11.228;2022-11-06T03:38:33;2.00;99.90
12720;DHT22;6424;48.520;11.228;2022-11-06T03:41:30;2.00;99.90
12720;DHT22;6424;48.520;11.228;2022-11-06T03:44:15;2.00;99.90
12720;DHT22;6424;48.520;11.228;2022-11-06T03:47:06;2.00;99.90
12720;DHT22;6424;48.520;11.228;2022-11-06T03:50:03;2.00;99.90
12720;DHT22;6424;48.520;11.228;2022-11-06T03:52:37;2.00;99.90
12720;DHT22;6424;48.520;11.228;2022-11-06T03:55:13;1.90;99.90
12720;DHT22;6424;48.520;11.228;2022-11-06T03:58:08;1.90;99.90
12720;DHT22;6424;48.520;11.228;2022-11-06T04:00:51;1.90;99.90
12720;DHT22;6424;48.520;11.228;2022-11-06T04:03:44;1.80;99.90
12720;DHT22;6424;48.520;11.228;2022-11-06T04:06:39;1.70;99.90
12720;DHT22;6424;48.520;11.228;2022-11-06T04:09:23;1.70;99.90
12720;DHT22;6424;48.520;11.228;2022-11-06T04:12:25;1.70;99.90
12720;DHT22;6424;48.520;11.228;2022-11-06T04:15:30;1.60;99.90
12720;DHT22;6424;48.520;11.228;2022-11-06T04:18:13;1.60;99.90
12720;DHT22;6424;48.520;11.228;2022-11-06T04:24:20;1.60;99.90
12720;DHT22;6424;48.520;11.228;2022-11-06T04:30:38;1.60;99.90
12720;DHT22;6424;48.520;11.228;2022-11-06T04:33:31;1.70;99.90
12720;DHT22;6424;48.520;11.228;2022-11-06T04:36:28;1.70;99.90
12720;DHT22;6424;48.520;11.228;2022-11-06T04:42:08;1.70;99.90
12720;DHT22;6424;48.520;11.228;2022-11-06T04:44:54;1.70;99.90
12720;DHT22;6424;48.520;11.228;2022-11-06T04:47:38;1.70;99.90
12720;DHT22;6424;48.520;11.228;2022-11-06T04:50:21;1.60;99.90
12720;DHT22;6424;48.520;11.228;2022-11-06T04:53:03;1.60;99.90
12720;DHT22;6424;48.520;11.228;2022-11-06T04:56:11;1.50;99.90
12720;DHT22;6424;48.520;11.228;2022-11-06T04:58:52;1.50;99.90
12720;DHT22;6424;48.520;11.228;2022-11-06T05:01:33;1.50;99.90
12720;DHT22;6424;48.520;11.228;2022-11-06T05:04:14;1.50;99.90
12720;DHT22;6424;48.520;11.228;2022-11-06T05:06:55;1.50;99.90
12720;DHT22;6424;48.520;11.228;2022-11-06T05:09:35;1.40;99.90
12720;DHT22;6424;48.520;11.228;2022-11-06T05:12:16;1.40;99.90
12720;DHT22;6424;48.520;11.228;2022-11-06T05:14:57;1.40;99.90
12720;DHT22;6424;48.520;11.228;2022-11-06T05:17:37;1.30;99.90
12720;DHT22;6424;48.520;11.228;2022-11-06T05:20:18;1.30;99.90
12720;DHT22;6424;48.520;11.228;2022-11-06T05:22:59;1.30;99.90
12720;DHT22;6424;48.520;11.228;2022-11-06T05:25:40;1.20;99.90
12720;DHT22;6424;48.520;11.228;2022-11-06T05:28:21;1.20;99.90
12720;DHT22;6424;48.520;11.228;2022-11-06T05:31:02;1.20;99.90
12720;DHT22;6424;48.520;11.228;2022-11-06T05:33:43;1.20;99.90
12720;DHT22;6424;48.520;11.228;2022-11-06T05:36:24;1.20;99.90
12720;DHT22;6424;48.520;11.228;2022-11-06T05:38:50;1.20;99.90
12720;DHT22;6424;48.520;11.228;2022-11-06T05:41:30;1.20;99.90
12720;DHT22;6424;48.520;11.228;2022-11-06T05:44:11;1.20;99.90
12720;DHT22;6424;48.520;11.228;2022-11-06T05:46:52;1.20;99.90
12720;DHT22;6424;48.520;11.228;2022-11-06T05:49:33;1.20;99.90
12720;DHT22;6424;48.520;11.228;2022-11-06T05:52:13;1.20;99.90
12720;DHT22;6424;48.520;11.228;2022-11-06T05:54:39;1.20;99.90
12720;DHT22;6424;48.520;11.228;2022-11-06T05:57:20;1.20;99.90
12720;DHT22;6424;48.520;11.228;2022-11-06T06:00:01;1.40;99.90
12720;DHT22;6424;48.520;11.228;2022-11-06T06:02:42;1.40;99.90
12720;DHT22;6424;48.520;11.228;2022-11-06T06:05:23;1.50;99.90
12720;DHT22;6424;48.520;11.228;2022-11-06T06:08:04;1.50;99.90
12720;DHT22;6424;48.520;11.228;2022-11-06T06:10:46;1.60;99.90
12720;DHT22;6424;48.520;11.228;2022-11-06T06:13:26;1.60;99.90
12720;DHT22;6424;48.520;11.228;2022-11-06T06:16:07;1.60;99.90
12720;DHT22;6424;48.520;11.228;2022-11-06T06:18:33;1.60;99.90
12720;DHT22;6424;48.520;11.228;2022-11-06T06:21:14;1.60;99.90
12720;DHT22;6424;48.520;11.228;2022-11-06T06:23:54;1.50;99.90
12720;DHT22;6424;48.520;11.228;2022-11-06T06:26:35;1.50;99.90
12720;DHT22;6424;48.520;11.228;2022-11-06T06:29:18;1.50;99.90
12720;DHT22;6424;48.520;11.228;2022-11-06T06:31:58;1.50;99.90
12720;DHT22;6424;48.520;11.228;2022-11-06T06:34:39;1.50;99.90
12720;DHT22;6424;48.520;11.228;2022-11-06T06:37:20;1.60;99.90
12720;DHT22;6424;48.520;11.228;2022-11-06T06:40:01;1.70;99.90
12720;DHT22;6424;48.520;11.228;2022-11-06T06:42:42;1.70;99.90
12720;DHT22;6424;48.520;11.228;2022-11-06T06:45:23;1.80;99.90
12720;DHT22;6424;48.520;11.228;2022-11-06T06:47:49;1.90;99.90
12720;DHT22;6424;48.520;11.228;2022-11-06T06:50:30;1.90;99.90
12720;DHT22;6424;48.520;11.228;2022-11-06T06:53:11;2.00;99.90
12720;DHT22;6424;48.520;11.228;2022-11-06T06:55:52;2.10;99.90
12720;DHT22;6424;48.520;11.228;2022-11-06T06:58:33;2.20;99.90
12720;DHT22;6424;48.520;11.228;2022-11-06T07:01:14;2.20;99.90
12720;DHT22;6424;48.520;11.228;2022-11-06T07:03:40;2.20;99.90
12720;DHT22;6424;48.520;11.228;2022-11-06T07:06:21;2.30;99.90
12720;DHT22;6424;48.520;11.228;2022-11-06T07:09:01;2.30;99.90
12720;DHT22;6424;48.520;11.228;2022-11-06T07:11:27;2.30;99.90
12720;DHT22;6424;48.520;11.228;2022-11-06T07:14:09;2.30;99.90
12720;DHT22;6424;48.520;11.228;2022-11-06T07:16:35;2.40;99.90
12720;DHT22;6424;48.520;11.228;2022-11-06T07:19:16;2.40;99.90
12720;DHT22;6424;48.520;11.228;2022-11-06T07:21:41;2.50;99.90
12720;DHT22;6424;48.520;11.228;2022-11-06T07:24:22;2.50;99.90
12720;DHT22;6424;48.520;11.228;2022-11-06T07:27:03;2.70;99.90
12720;DHT22;6424;48.520;11.228;2022-11-06T07:29:44;2.70;99.90
12720;DHT22;6424;48.520;11.228;2022-11-06T07:32:25;2.80;99.90
12720;DHT22;6424;48.520;11.228;2022-11-06T07:35:06;2.90;99.90
12720;DHT22;6424;48.520;11.228;2022-11-06T07:37:32;3.00;99.90
12720;DHT22;6424;48.520;11.228;2022-11-06T07:40:13;3.00;99.90
12720;DHT22;6424;48.520;11.228;2022-11-06T07:42:54;3.10;99.90
12720;DHT22;6424;48.520;11.228;2022-11-06T07:45:35;3.20;99.90
12720;DHT22;6424;48.520;11.228;2022-11-06T07:48:16;3.30;99.90
12720;DHT22;6424;48.520;11.228;2022-11-06T07:50:42;3.40;99.90
12720;DHT22;6424;48.520;11.228;2022-11-06T07:53:23;3.50;99.90
12720;DHT22;6424;48.520;11.228;2022-11-06T07:56:04;3.50;99.90
12720;DHT22;6424;48.520;11.228;2022-11-06T07:58:45;3.50;99.90
12720;DHT22;6424;48.520;11.228;2022-11-06T08:01:26;3.60;99.90
12720;DHT22;6424;48.520;11.228;2022-11-06T08:04:06;3.60;99.90
12720;DHT22;6424;48.520;11.228;2022-11-06T08:06:47;3.60;99.90
12720;DHT22;6424;48.520;11.228;2022-11-06T08:09:28;3.80;99.90
12720;DHT22;6424;48.520;11.228;2022-11-06T08:12:08;3.90;99.90
12720;DHT22;6424;48.520;11.228;2022-11-06T08:14:49;4.00;99.90
12720;DHT22;6424;48.520;11.228;2022-11-06T08:17:30;4.00;99.90
12720;DHT22;6424;48.520;11.228;2022-11-06T08:20:11;4.00;99.90
12720;DHT22;6424;48.520;11.228;2022-11-06T08:22:57;4.10;99.90
12720;DHT22;6424;48.520;11.228;2022-11-06T08:25:23;4.10;99.90
12720;DHT22;6424;48.520;11.228;2022-11-06T08:28:04;4.10;99.90
12720;DHT22;6424;48.520;11.228;2022-11-06T08:30:45;4.10;99.90
12720;DHT22;6424;48.520;11.228;2022-11-06T08:33:25;4.20;99.90
12720;DHT22;6424;48.520;11.228;2022-11-06T08:36:07;4.20;99.90
12720;DHT22;6424;48.520;11.228;2022-11-06T08:38:48;4.20;99.90
12720;DHT22;6424;48.520;11.228;2022-11-06T08:41:29;4.20;99.90
12720;DHT22;6424;48.520;11.228;2022-11-06T08:44:10;4.20;99.90
12720;DHT22;6424;48.520;11.228;2022-11-06T08:46:51;4.20;99.90
12720;DHT22;6424;48.520;11.228;2022-11-06T08:49:31;4.30;99.90
12720;DHT22;6424;48.520;11.228;2022-11-06T08:52:12;4.40;99.90
12720;DHT22;6424;48.520;11.228;2022-11-06T08:54:53;4.60;99.90
12720;DHT22;6424;48.520;11.228;2022-11-06T08:57:34;4.80;99.90
12720;DHT22;6424;48.520;11.228;2022-11-06T09:00:15;5.00;99.90
12720;DHT22;6424;48.520;11.228;2022-11-06T09:03:08;5.10;99.90
12720;DHT22;6424;48.520;11.228;2022-11-06T09:05:35;5.30;99.90
12720;DHT22;6424;48.520;11.228;2022-11-06T09:08:18;5.40;99.90
12720;DHT22;6424;48.520;11.228;2022-11-06T09:10:59;5.40;99.90
12720;DHT22;6424;48.520;11.228;2022-11-06T09:13:39;5.50;99.90
12720;DHT22;6424;48.520;11.228;2022-11-06T09:16:20;5.60;99.90
12720;DHT22;6424;48.520;11.228;2022-11-06T09:19:01;5.60;99.90
12720;DHT22;6424;48.520;11.228;2022-11-06T09:21:27;5.70;99.90
12720;DHT22;6424;48.520;11.228;2022-11-06T09:24:08;5.80;99.90
12720;DHT22;6424;48.520;11.228;2022-11-06T09:26:48;5.80;99.90
12720;DHT22;6424;48.520;11.228;2022-11-06T09:29:14;5.80;99.90
12720;DHT22;6424;48.520;11.228;2022-11-06T09:31:55;5.80;99.90
12720;DHT22;6424;48.520;11.228;2022-11-06T09:34:36;5.80;99.90
12720;DHT22;6424;48.520;11.228;2022-11-06T09:37:16;5.70;99.90
12720;DHT22;6424;48.520;11.228;2022-11-06T09:39:57;5.70;99.90
12720;DHT22;6424;48.520;11.228;2022-11-06T09:45:41;5.80;99.90
12720;DHT22;6424;48.520;11.228;2022-11-06T09:48:40;5.80;99.90
12720;DHT22;6424;48.520;11.228;2022-11-06T09:51:37;5.80;99.90
12720;DHT22;6424;48.520;11.228;2022-11-06T09:54:53;5.90;99.90
12720;DHT22;6424;48.520;11.228;2022-11-06T09:57:43;5.90;99.90
12720;DHT22;6424;48.520;11.228;2022-11-06T10:00:25;5.90;99.90
12720;DHT22;6424;48.520;11.228;2022-11-06T10:03:14;5.90;99.90
12720;DHT22;6424;48.520;11.228;2022-11-06T10:05:44;5.90;99.90
12720;DHT22;6424;48.520;11.228;2022-11-06T10:08:27;5.90;99.90
12720;DHT22;6424;48.520;11.228;2022-11-06T10:17:56;5.90;99.90
12720;DHT22;6424;48.520;11.228;2022-11-06T10:20:45;6.00;99.90
12720;DHT22;6424;48.520;11.228;2022-11-06T10:23:44;6.20;99.90
12720;DHT22;6424;48.520;11.228;2022-11-06T10:26:38;6.20;99.90
12720;DHT22;6424;48.520;11.228;2022-11-06T10:35:03;6.40;99.90
12720;DHT22;6424;48.520;11.228;2022-11-06T10:40:46;6.60;99.90
12720;DHT22;6424;48.520;11.228;2022-11-06T10:43:51;6.60;99.90
12720;DHT22;6424;48.520;11.228;2022-11-06T10:46:42;6.70;99.90
12720;DHT22;6424;48.520;11.228;2022-11-06T10:49:52;6.80;99.90
12720;DHT22;6424;48.520;11.228;2022-11-06T10:52:47;6.80;99.90
12720;DHT22;6424;48.520;11.228;2022-11-06T10:55:40;6.80;99.90
12720;DHT22;6424;48.520;11.228;2022-11-06T10:58:29;6.80;99.90
12720;DHT22;6424;48.520;11.228;2022-11-06T11:01:13;6.90;99.90
12720;DHT22;6424;48.520;11.228;2022-11-06T11:03:54;6.90;99.90
12720;DHT22;6424;48.520;11.228;2022-11-06T11:06:38;7.00;99.90
12720;DHT22;6424;48.520;11.228;2022-11-06T11:09:31;7.10;99.90
12720;DHT22;6424;48.520;11.228;2022-11-06T11:15:13;7.20;99.90
12720;DHT22;6424;48.520;11.228;2022-11-06T11:21:06;7.30;99.90
12720;DHT22;6424;48.520;11.228;2022-11-06T11:24:08;7.40;99.90
12720;DHT22;6424;48.520;11.228;2022-11-06T11:26:52;7.40;99.90
12720;DHT22;6424;48.520;11.228;2022-11-06T11:29:54;7.40;99.90
12720;DHT22;6424;48.520;11.228;2022-11-06T11:32:36;7.50;99.90
12720;DHT22;6424;48.520;11.228;2022-11-06T11:35:23;7.60;99.90
12720;DHT22;6424;48.520;11.228;2022-11-06T11:38:12;7.70;99.90
12720;DHT22;6424;48.520;11.228;2022-11-06T11:41:11;7.70;99.90
12720;DHT22;6424;48.520;11.228;2022-11-06T11:44:14;7.70;99.90
12720;DHT22;6424;48.520;11.228;2022-11-06T11:46:56;7.70;99.90
12720;DHT22;6424;48.520;11.228;2022-11-06T11:49:36;7.80;99.90
12720;DHT22;6424;48.520;11.228;2022-11-06T11:52:19;7.80;99.90
12720;DHT22;6424;48.520;11.228;2022-11-06T11:55:01;7.80;99.90
12720;DHT22;6424;48.520;11.228;2022-11-06T11:57:27;7.90;99.90
12720;DHT22;6424;48.520;11.228;2022-11-06T12:00:15;8.00;99.90
12720;DHT22;6424;48.520;11.228;2022-11-06T12:03:04;8.10;99.90
12720;DHT22;6424;48.520;11.228;2022-11-06T12:05:46;8.20;99.90
12720;DHT22;6424;48.520;11.228;2022-11-06T12:08:27;8.30;99.90
12720;DHT22;6424;48.520;11.228;2022-11-06T12:11:13;8.30;99.90
12720;DHT22;6424;48.520;11.228;2022-11-06T12:19:52;8.60;99.90
12720;DHT22;6424;48.520;11.228;2022-11-06T12:22:41;8.80;99.90
12720;DHT22;6424;48.520;11.228;2022-11-06T12:25:32;8.80;99.90
12720;DHT22;6424;48.520;11.228;2022-11-06T12:28:16;8.80;99.90
12720;DHT22;6424;48.520;11.228;2022-11-06T12:31:08;8.70;99.90
12720;DHT22;6424;48.520;11.228;2022-11-06T12:33:55;8.80;99.90
12720;DHT22;6424;48.520;11.228;2022-11-06T12:36:42;8.80;99.90
12720;DHT22;6424;48.520;11.228;2022-11-06T12:39:26;8.70;99.90
12720;DHT22;6424;48.520;11.228;2022-11-06T12:41:55;8.60;99.90
12720;DHT22;6424;48.520;11.228;2022-11-06T12:44:36;8.60;99.90
12720;DHT22;6424;48.520;11.228;2022-11-06T12:50:50;8.80;99.90
12720;DHT22;6424;48.520;11.228;2022-11-06T12:56:10;8.90;99.90
12720;DHT22;6424;48.520;11.228;2022-11-06T12:58:50;8.90;99.90
12720;DHT22;6424;48.520;11.228;2022-11-06T13:01:47;9.00;99.90
12720;DHT22;6424;48.520;11.228;2022-11-06T13:14:13;9.00;99.90
12720;DHT22;6424;48.520;11.228;2022-11-06T13:17:23;9.00;99.90
12720;DHT22;6424;48.520;11.228;2022-11-06T13:20:28;8.90;99.90
12720;DHT22;6424;48.520;11.228;2022-11-06T13:23:23;9.00;99.90
12720;DHT22;6424;48.520;11.228;2022-11-06T13:29:04;9.10;99.90
12720;DHT22;6424;48.520;11.228;2022-11-06T13:31:55;9.00;99.90
12720;DHT22;6424;48.520;11.228;2022-11-06T13:34:40;9.10;99.90
12720;DHT22;6424;48.520;11.228;2022-11-06T13:37:37;9.10;99.90
12720;DHT22;6424;48.520;11.228;2022-11-06T13:40:26;9.20;99.90
12720;DHT22;6424;48.520;11.228;2022-11-06T13:43:40;9.20;99.90
12720;DHT22;6424;48.520;11.228;2022-11-06T13:51:53;9.30;99.90
12720;DHT22;6424;48.520;11.228;2022-11-06T14:03:44;9.20;99.90
12720;DHT22;6424;48.520;11.228;2022-11-06T14:06:30;9.20;99.90
12720;DHT22;6424;48.520;11.228;2022-11-06T14:09:14;9.20;99.90
12720;DHT22;6424;48.520;11.228;2022-11-06T14:11:59;9.20;99.90
12720;DHT22;6424;48.520;11.228;2022-11-06T14:14:41;9.10;99.90
12720;DHT22;6424;48.520;11.228;2022-11-06T14:17:23;9.10;99.90
12720;DHT22;6424;48.520;11.228;2022-11-06T14:20:26;9.10;99.90
12720;DHT22;6424;48.520;11.228;2022-11-06T14:22:52;9.10;99.90
12720;DHT22;6424;48.520;11.228;2022-11-06T14:28:34;9.00;99.90
12720;DHT22;6424;48.520;11.228;2022-11-06T14:34:37;9.00;99.90
12720;DHT22;6424;48.520;11.228;2022-11-06T14:40:04;8.90;99.90
12720;DHT22;6424;48.520;11.228;2022-11-06T14:42:37;8.90;99.90
12720;DHT22;6424;48.520;11.228;2022-11-06T14:45:21;8.90;99.90
12720;DHT22;6424;48.520;11.228;2022-11-06T14:48:02;8.80;99.90
12720;DHT22;6424;48.520;11.228;2022-11-06T14:50:48;8.70;99.90
12720;DHT22;6424;48.520;11.228;2022-11-06T14:56:20;8.70;99.90
12720;DHT22;6424;48.520;11.228;2022-11-06T14:58:49;8.60;99.90
12720;DHT22;6424;48.520;11.228;2022-11-06T15:01:33;8.50;99.90
12720;DHT22;6424;48.520;11.228;2022-11-06T15:04:16;8.50;99.90
12720;DHT22;6424;48.520;11.228;2022-11-06T15:07:07;8.40;99.90
12720;DHT22;6424;48.520;11.228;2022-11-06T15:09:48;8.40;99.90
12720;DHT22;6424;48.520;11.228;2022-11-06T15:12:14;8.40;99.90
12720;DHT22;6424;48.520;11.228;2022-11-06T15:14:56;8.30;99.90
12720;DHT22;6424;48.520;11.228;2022-11-06T15:17:38;8.30;99.90
12720;DHT22;6424;48.520;11.228;2022-11-06T15:20:26;8.30;99.90
12720;DHT22;6424;48.520;11.228;2022-11-06T15:23:20;8.20;99.90
12720;DHT22;6424;48.520;11.228;2022-11-06T15:26:14;8.10;99.90
12720;DHT22;6424;48.520;11.228;2022-11-06T15:32:20;8.00;99.90
12720;DHT22;6424;48.520;11.228;2022-11-06T15:35:10;7.80;99.90
12720;DHT22;6424;48.520;11.228;2022-11-06T15:37:55;7.70;99.90
12720;DHT22;6424;48.520;11.228;2022-11-06T15:40:38;7.60;99.90
12720;DHT22;6424;48.520;11.228;2022-11-06T15:43:30;7.50;99.90
12720;DHT22;6424;48.520;11.228;2022-11-06T15:46:21;7.40;99.90
12720;DHT22;6424;48.520;11.228;2022-11-06T15:49:19;7.30;99.90
12720;DHT22;6424;48.520;11.228;2022-11-06T15:51:57;7.20;99.90
12720;DHT22;6424;48.520;11.228;2022-11-06T15:54:40;7.10;99.90
12720;DHT22;6424;48.520;11.228;2022-11-06T15:57:23;7.00;99.90
12720;DHT22;6424;48.520;11.228;2022-11-06T16:02:50;6.90;99.90
12720;DHT22;6424;48.520;11.228;2022-11-06T16:05:33;6.80;99.90
12720;DHT22;6424;48.520;11.228;2022-11-06T16:08:17;6.70;99.90
12720;DHT22;6424;48.520;11.228;2022-11-06T16:10:59;6.70;99.90
12720;DHT22;6424;48.520;11.228;2022-11-06T16:13:42;6.70;99.90
12720;DHT22;6424;48.520;11.228;2022-11-06T16:16:34;6.60;99.90
12720;DHT22;6424;48.520;11.228;2022-11-06T16:19:36;6.60;99.90
12720;DHT22;6424;48.520;11.228;2022-11-06T16:22:28;6.50;99.90
12720;DHT22;6424;48.520;11.228;2022-11-06T16:25:16;6.40;99.90
12720;DHT22;6424;48.520;11.228;2022-11-06T16:27:58;6.30;99.90
12720;DHT22;6424;48.520;11.228;2022-11-06T16:30:39;6.30;99.90
12720;DHT22;6424;48.520;11.228;2022-11-06T16:33:20;6.30;99.90
12720;DHT22;6424;48.520;11.228;2022-11-06T16:36:06;6.30;99.90
12720;DHT22;6424;48.520;11.228;2022-11-06T16:38:47;6.20;99.90
12720;DHT22;6424;48.520;11.228;2022-11-06T16:45:15;6.10;99.90
12720;DHT22;6424;48.520;11.228;2022-11-06T16:50:49;5.90;99.90
12720;DHT22;6424;48.520;11.228;2022-11-06T16:53:46;5.80;99.90
12720;DHT22;6424;48.520;11.228;2022-11-06T16:56:30;5.80;99.90
12720;DHT22;6424;48.520;11.228;2022-11-06T16:59:14;5.70;99.90
12720;DHT22;6424;48.520;11.228;2022-11-06T17:02:02;5.70;99.90
12720;DHT22;6424;48.520;11.228;2022-11-06T17:04:43;5.70;99.90
12720;DHT22;6424;48.520;11.228;2022-11-06T17:07:24;5.60;99.90
12720;DHT22;6424;48.520;11.228;2022-11-06T17:10:38;5.60;99.90
12720;DHT22;6424;48.520;11.228;2022-11-06T17:13:42;5.60;99.90
12720;DHT22;6424;48.520;11.228;2022-11-06T17:16:27;5.60;99.90
12720;DHT22;6424;48.520;11.228;2022-11-06T17:19:08;5.50;99.90
12720;DHT22;6424;48.520;11.228;2022-11-06T17:21:49;5.50;99.90
12720;DHT22;6424;48.520;11.228;2022-11-06T17:24:30;5.50;99.90
12720;DHT22;6424;48.520;11.228;2022-11-06T17:27:10;5.40;99.90
12720;DHT22;6424;48.520;11.228;2022-11-06T17:29:51;5.40;99.90
12720;DHT22;6424;48.520;11.228;2022-11-06T17:32:32;5.40;99.90
12720;DHT22;6424;48.520;11.228;2022-11-06T17:35:13;5.40;99.90
12720;DHT22;6424;48.520;11.228;2022-11-06T17:37:39;5.40;99.90
12720;DHT22;6424;48.520;11.228;2022-11-06T17:40:19;5.40;99.90
12720;DHT22;6424;48.520;11.228;2022-11-06T17:43:00;5.40;99.90
12720;DHT22;6424;48.520;11.228;2022-11-06T17:45:42;5.40;99.90
12720;DHT22;6424;48.520;11.228;2022-11-06T17:48:24;5.40;99.90
12720;DHT22;6424;48.520;11.228;2022-11-06T17:51:05;5.40;99.90
12720;DHT22;6424;48.520;11.228;2022-11-06T17:54:04;5.40;99.90
12720;DHT22;6424;48.520;11.228;2022-11-06T17:56:46;5.40;99.90
12720;DHT22;6424;48.520;11.228;2022-11-06T17:59:27;5.40;99.90
12720;DHT22;6424;48.520;11.228;2022-11-06T18:02:14;5.50;99.90
12720;DHT22;6424;48.520;11.228;2022-11-06T18:04:56;5.50;99.90
12720;DHT22;6424;48.520;11.228;2022-11-06T18:07:37;5.50;99.90
12720;DHT22;6424;48.520;11.228;2022-11-06T18:10:18;5.60;99.90
12720;DHT22;6424;48.520;11.228;2022-11-06T18:12:58;5.60;99.90
12720;DHT22;6424;48.520;11.228;2022-11-06T18:15:39;5.70;99.90
12720;DHT22;6424;48.520;11.228;2022-11-06T18:18:20;5.70;99.90
12720;DHT22;6424;48.520;11.228;2022-11-06T18:21:01;5.70;99.90
12720;DHT22;6424;48.520;11.228;2022-11-06T18:23:41;5.80;99.90
12720;DHT22;6424;48.520;11.228;2022-11-06T18:26:22;5.80;99.90
12720;DHT22;6424;48.520;11.228;2022-11-06T18:29:05;5.80;99.90
12720;DHT22;6424;48.520;11.228;2022-11-06T18:31:46;5.80;99.90
12720;DHT22;6424;48.520;11.228;2022-11-06T18:34:26;5.80;99.90
12720;DHT22;6424;48.520;11.228;2022-11-06T18:37:07;5.80;99.90
12720;DHT22;6424;48.520;11.228;2022-11-06T18:39:48;5.90;99.90
12720;DHT22;6424;48.520;11.228;2022-11-06T18:42:29;5.90;99.90
12720;DHT22;6424;48.520;11.228;2022-11-06T18:44:55;5.90;99.90
12720;DHT22;6424;48.520;11.228;2022-11-06T18:47:35;6.00;99.90
12720;DHT22;6424;48.520;11.228;2022-11-06T18:50:16;6.00;99.90
12720;DHT22;6424;48.520;11.228;2022-11-06T18:52:57;6.00;99.90
12720;DHT22;6424;48.520;11.228;2022-11-06T18:55:42;6.10;99.90
12720;DHT22;6424;48.520;11.228;2022-11-06T18:58:24;6.00;99.90
12720;DHT22;6424;48.520;11.228;2022-11-06T19:01:06;6.00;99.90
12720;DHT22;6424;48.520;11.228;2022-11-06T19:03:48;6.00;99.90
12720;DHT22;6424;48.520;11.228;2022-11-06T19:06:29;6.00;99.90
12720;DHT22;6424;48.520;11.228;2022-11-06T19:09:10;6.10;99.90
12720;DHT22;6424;48.520;11.228;2022-11-06T19:11:36;6.10;99.90
12720;DHT22;6424;48.520;11.228;2022-11-06T19:14:16;6.10;99.90
12720;DHT22;6424;48.520;11.228;2022-11-06T19:16:57;6.10;99.90
12720;DHT22;6424;48.520;11.228;2022-11-06T19:19:38;6.20;99.90
12720;DHT22;6424;48.520;11.228;2022-11-06T19:22:19;6.20;99.90
12720;DHT22;6424;48.520;11.228;2022-11-06T19:24:59;6.20;99.90
12720;DHT22;6424;48.520;11.228;2022-11-06T19:27:40;6.20;99.90
12720;DHT22;6424;48.520;11.228;2022-11-06T19:30:21;6.20;99.90